Terminal Aerodrome Forecast
Issued by NWS Charleston, SC

Current Version | Previous Version | Text Only | Print | Product List | Glossary On
Versions: 1 2 3 4 5 6 7 8 9 10 11 12 13 14 15 16 17 18 19 20 21 22 23 24 25 26
000
FTUS42 KCHS 170500
TAFCHS
TAF
KCHS 170521Z 1706/1806 03009G14KT P6SM SCT030
     FM171300 06012G19KT P6SM SCT050
     FM180000 04010KT P6SM SCT040 BKN250=

USA.gov is the U.S. government's official web portal to all federal, state and local government web resources and services.